Time;durP1;ratioP1;P1;durP2;ratioP2;P2;SDS_P1;SDS_P2;PMS_P1;PMS_P2;Temp;Humidity;BMP_temperature;BMP_pressure;BME280_temperature;BME280_humidity;BME280_pressure;Samples;Min_cycle;Max_cycle;Signal;HPM_P1;HPM_P2
2022/12/25 00:02:18;;;;;;;4.40;3.70;;;;;;;8.44;100.00;153528.34;4990897;28;20763;-77
2022/12/25 00:05:04;;;;;;;4.97;3.03;;;;;;;8.44;100.00;153528.34;4987243;28;20490;-77
2022/12/25 00:07:50;;;;;;;4.47;3.27;;;;;;;8.46;100.00;153533.53;4984290;28;20961;-77
2022/12/25 00:10:35;;;;;;;5.00;3.70;;;;;;;8.46;100.00;153532.22;4989287;28;20506;-77
2022/12/25 00:13:21;;;;;;;4.57;3.50;;;;;;;8.48;100.00;153538.69;4989510;28;20465;-77
2022/12/25 00:16:07;;;;;;;4.50;3.60;;;;;;;8.44;100.00;153528.34;4989459;28;20454;-78
2022/12/25 00:18:53;;;;;;;5.03;4.30;;;;;;;8.45;100.00;153530.91;4988943;28;20436;-77
2022/12/25 00:21:40;;;;;;;5.70;3.43;;;;;;;8.47;100.00;153536.06;4989692;28;20429;-77
2022/12/25 00:24:25;;;;;;;5.37;3.50;;;;;;;8.45;100.00;153529.63;4990292;28;20991;-77
2022/12/25 00:27:11;;;;;;;6.30;3.40;;;;;;;8.47;100.00;153534.81;4994849;28;20454;-77
2022/12/25 00:29:56;;;;;;;4.67;3.90;;;;;;;8.47;100.00;153536.06;4978611;28;20480;-77
2022/12/25 00:32:42;;;;;;;4.87;4.10;;;;;;;8.46;100.00;153532.22;4986984;28;20984;-78
2022/12/25 00:35:27;;;;;;;4.93;4.40;;;;;;;8.45;100.00;153529.63;4987194;28;20520;-78
2022/12/25 00:38:14;;;;;;;5.00;4.50;;;;;;;8.43;100.00;153524.47;4986343;28;20879;-78
2022/12/25 00:40:59;;;;;;;4.20;3.73;;;;;;;8.44;100.00;153527.06;4992892;28;20595;-77
2022/12/25 00:43:45;;;;;;;5.33;4.70;;;;;;;8.42;100.00;153523.16;4985922;28;20683;-77
2022/12/25 00:46:30;;;;;;;6.60;5.17;;;;;;;8.43;100.00;153525.75;5001560;28;20429;-77
2022/12/25 00:49:15;;;;;;;7.00;4.80;;;;;;;8.42;100.00;153523.16;4985879;28;20454;-77
2022/12/25 00:52:01;;;;;;;5.30;4.50;;;;;;;8.42;100.00;153523.16;4987605;28;20465;-77
2022/12/25 00:54:48;;;;;;;6.10;4.40;;;;;;;8.41;100.00;153520.59;5001432;28;20940;-77
2022/12/25 00:57:33;;;;;;;8.30;4.83;;;;;;;8.41;100.00;153520.59;4988769;28;20904;-78
2022/12/25 01:00:19;;;;;;;7.67;5.10;;;;;;;8.42;100.00;153521.84;4990159;28;20470;-77
2022/12/25 01:03:04;;;;;;;4.80;4.20;;;;;;;8.43;100.00;153525.75;4980965;28;20441;-77
2022/12/25 01:05:55;;;;;;;6.23;4.73;;;;;;;8.42;100.00;153523.16;4990055;28;20470;-77
2022/12/25 01:10:21;;;;;;;6.00;4.50;;;;;;;8.39;100.00;153514.13;4979710;28;20529;-77
2022/12/25 01:11:49;;;;;;;6.80;5.03;;;;;;;8.39;100.00;153514.13;4980269;28;20504;-77
2022/12/25 01:14:34;;;;;;;7.77;5.43;;;;;;;8.39;100.00;153514.13;4988806;28;20448;-77
2022/12/25 01:17:19;;;;;;;8.10;5.20;;;;;;;8.39;100.00;153515.38;4995268;28;20512;-77
2022/12/25 01:20:06;;;;;;;11.63;6.30;;;;;;;8.36;100.00;153507.69;4991513;28;20453;-77
2022/12/25 01:22:51;;;;;;;6.40;4.83;;;;;;;8.37;100.00;153510.22;4991647;28;20458;-77
2022/12/25 01:25:36;;;;;;;6.97;5.23;;;;;;;8.38;100.00;153512.84;4989174;28;20511;-77
2022/12/25 01:28:23;;;;;;;6.80;5.27;;;;;;;8.42;100.00;153521.84;4989226;28;20529;-77
2022/12/25 01:31:11;;;;;;;4.93;4.43;;;;;;;8.42;100.00;153521.84;4985585;28;20533;-78
2022/12/25 01:33:56;;;;;;;6.37;5.07;;;;;;;8.44;100.00;153528.34;4992794;28;20477;-77
2022/12/25 01:36:41;;;;;;;6.40;5.53;;;;;;;8.46;100.00;153533.53;4993996;28;20447;-77
2022/12/25 01:39:27;;;;;;;5.77;4.93;;;;;;;8.44;100.00;153528.34;4991373;28;20528;-78
2022/12/25 01:42:16;;;;;;;6.93;5.00;;;;;;;8.44;100.00;153528.34;4986601;28;20445;-77
2022/12/25 01:45:40;;;;;;;8.20;4.73;;;;;;;8.45;100.00;153530.91;4987353;28;20466;-78
2022/12/25 01:48:30;;;;;;;6.03;5.27;;;;;;;8.44;100.00;153528.34;4992353;28;20843;-77
2022/12/25 01:51:20;;;;;;;6.87;5.33;;;;;;;8.45;100.00;153529.63;5006746;28;20453;-78
2022/12/25 01:54:07;;;;;;;6.93;6.00;;;;;;;8.45;100.00;153530.91;4994988;28;20487;-78
2022/12/25 01:56:53;;;;;;;9.37;5.90;;;;;;;8.42;100.00;153523.16;5005404;28;20441;-78
2022/12/25 01:59:39;;;;;;;6.87;6.17;;;;;;;8.38;100.00;153512.84;5005193;28;20453;-78
2022/12/25 02:02:24;;;;;;;6.30;5.70;;;;;;;8.36;100.00;153506.38;4994373;28;20454;-78
2022/12/25 02:05:15;;;;;;;7.27;5.70;;;;;;;8.36;100.00;153507.69;4993339;28;20496;-78
2022/12/25 02:08:02;;;;;;;7.43;6.00;;;;;;;8.36;100.00;153507.69;4992866;28;20544;-78
2022/12/25 02:10:47;;;;;;;8.57;6.90;;;;;;;8.48;100.00;153538.69;4994101;28;20948;-78
2022/12/25 02:13:32;;;;;;;8.00;6.90;;;;;;;8.56;100.00;153559.38;4993181;28;21152;-79
2022/12/25 02:16:21;;;;;;;11.10;6.10;;;;;;;8.47;100.00;153536.06;4993713;28;20433;-78
2022/12/25 02:19:32;;;;;;;7.10;5.53;;;;;;;8.37;100.00;153510.22;4992104;28;20477;-78
2022/12/25 02:22:28;;;;;;;9.43;5.73;;;;;;;8.32;100.00;153497.31;4987381;28;20844;-79
2022/12/25 02:25:25;;;;;;;7.30;5.00;;;;;;;8.29;100.00;153489.56;4991138;28;20476;-78
2022/12/25 02:28:16;;;;;;;5.20;4.70;;;;;;;8.28;100.00;153487.00;4992535;28;20462;-78
2022/12/25 02:31:07;;;;;;;5.73;4.90;;;;;;;8.26;100.00;153481.75;4993298;28;20450;-79
2022/12/25 02:34:02;;;;;;;7.03;5.97;;;;;;;8.28;100.00;153485.69;4992668;28;20475;-78
2022/12/25 02:36:52;;;;;;;5.20;4.63;;;;;;;8.33;100.00;153499.91;5006276;28;20940;-79
2022/12/25 03:07:37;;;;;;;3.80;3.20;;;;;;;8.28;100.00;153485.69;4986264;28;20435;-78
2022/12/25 03:13:29;;;;;;;3.93;3.50;;;;;;;8.30;100.00;153490.84;5012581;28;20494;-78
2022/12/25 03:28:31;;;;;;;5.70;3.33;;;;;;;8.31;100.00;153494.72;5000423;28;20445;-78
2022/12/25 03:31:20;;;;;;;4.40;3.53;;;;;;;8.30;100.00;153492.16;5013188;28;20444;-79
2022/12/25 04:36:29;;;;;;;4.33;3.50;;;;;;;8.09;100.00;153436.53;4991170;28;20453;-78
2022/12/25 04:39:14;;;;;;;4.93;3.33;;;;;;;8.16;100.00;153455.91;4987693;28;20444;-78
2022/12/25 04:42:00;;;;;;;3.27;2.80;;;;;;;8.16;100.00;153454.59;4996783;28;20430;-79
2022/12/25 04:44:45;;;;;;;6.17;3.37;;;;;;;8.15;100.00;153452.03;4996449;28;20604;-78
2022/12/25 04:47:30;;;;;;;4.00;3.60;;;;;;;8.15;100.00;153452.03;4991991;28;20458;-78
2022/12/25 04:50:16;;;;;;;3.43;2.90;;;;;;;8.15;100.00;153453.34;4991956;28;20444;-78
2022/12/25 04:53:02;;;;;;;4.10;3.10;;;;;;;8.16;100.00;153455.91;5011870;28;20857;-78
2022/12/25 04:55:48;;;;;;;4.73;3.30;;;;;;;8.15;100.00;153453.34;4991745;28;20456;-78
2022/12/25 04:58:33;;;;;;;4.33;3.50;;;;;;;8.14;100.00;153450.75;4988297;28;20440;-78
2022/12/25 05:01:19;;;;;;;3.73;3.27;;;;;;;8.14;100.00;153450.75;4987961;28;20481;-78
2022/12/25 05:04:05;;;;;;;4.07;3.70;;;;;;;8.14;100.00;153450.75;4988644;28;20430;-78
2022/12/25 05:06:49;;;;;;;4.30;3.63;;;;;;;8.14;100.00;153449.44;4991562;28;20537;-78
2022/12/25 05:09:40;;;;;;;5.37;3.80;;;;;;;8.15;100.00;153453.34;4995035;28;20776;-78
2022/12/25 05:12:25;;;;;;;4.00;3.60;;;;;;;8.15;100.00;153452.03;4995729;28;20426;-78
2022/12/25 05:15:11;;;;;;;3.97;3.53;;;;;;;8.18;100.00;153459.81;4994154;28;21250;-78
2022/12/25 05:17:56;;;;;;;3.80;3.30;;;;;;;8.20;100.00;153466.28;4990508;28;20961;-78
2022/12/25 05:20:42;;;;;;;4.40;3.30;;;;;;;8.20;100.00;153466.28;4984595;28;20794;-78
2022/12/25 05:23:27;;;;;;;4.63;3.40;;;;;;;8.22;100.00;153471.44;5010177;28;20438;-78
2022/12/25 05:26:14;;;;;;;4.40;3.63;;;;;;;8.23;100.00;153474.03;4988626;28;20561;-78
2022/12/25 05:29:00;;;;;;;3.73;3.33;;;;;;;8.23;100.00;153474.03;4994830;28;20406;-78
2022/12/25 05:31:45;;;;;;;3.37;3.07;;;;;;;8.26;100.00;153480.50;4995365;28;20900;-78
2022/12/25 05:34:30;;;;;;;4.07;3.67;;;;;;;8.25;100.00;153479.19;4992595;28;20625;-78
2022/12/25 05:37:16;;;;;;;5.90;3.93;;;;;;;8.24;100.00;153476.59;4986606;28;20990;-78
2022/12/25 05:40:01;;;;;;;4.97;4.17;;;;;;;8.25;100.00;153479.19;5004629;28;20446;-78
2022/12/25 05:42:48;;;;;;;5.07;4.40;;;;;;;8.25;100.00;153477.88;5001263;28;20493;-78
2022/12/25 05:45:34;;;;;;;7.40;4.63;;;;;;;8.25;100.00;153479.19;4992165;28;20477;-78
2022/12/25 05:48:19;;;;;;;5.57;4.90;;;;;;;8.24;100.00;153476.59;5001080;28;20429;-78
2022/12/25 05:51:05;;;;;;;6.30;5.70;;;;;;;8.23;100.00;153474.03;4994167;28;20462;-78
2022/12/25 05:53:51;;;;;;;7.97;5.70;;;;;;;8.23;100.00;153474.03;4983470;28;20946;-78
2022/12/25 05:56:37;;;;;;;4.97;4.40;;;;;;;8.24;100.00;153475.28;4989528;28;20443;-78
2022/12/25 05:59:23;;;;;;;6.33;5.63;;;;;;;8.24;100.00;153475.28;4976148;28;20461;-78
2022/12/25 06:02:09;;;;;;;5.40;4.80;;;;;;;8.24;100.00;153476.59;4989598;28;20936;-78
2022/12/25 06:04:54;;;;;;;6.00;5.40;;;;;;;8.24;100.00;153476.59;4990678;28;20972;-78
2022/12/25 06:07:39;;;;;;;6.47;5.33;;;;;;;8.23;100.00;153474.03;4994275;28;20448;-78
2022/12/25 06:10:25;;;;;;;6.87;5.77;;;;;;;8.22;100.00;153471.44;4995999;28;20520;-78
2022/12/25 06:13:10;;;;;;;5.37;4.87;;;;;;;8.25;100.00;153479.19;4988389;28;20441;-78
2022/12/25 06:15:57;;;;;;;5.83;5.17;;;;;;;8.24;100.00;153476.59;5005258;28;20441;-78
2022/12/25 06:18:45;;;;;;;6.00;5.13;;;;;;;8.26;100.00;153481.75;5006369;28;20461;-78
2022/12/25 06:21:30;;;;;;;5.20;4.50;;;;;;;8.24;100.00;153476.59;4997767;28;20438;-78
2022/12/25 06:24:15;;;;;;;4.57;4.17;;;;;;;8.25;100.00;153477.88;4996419;28;20456;-78
2022/12/25 06:27:01;;;;;;;5.00;4.30;;;;;;;8.25;100.00;153479.19;4990965;28;20466;-78
2022/12/25 06:29:46;;;;;;;4.10;3.70;;;;;;;8.24;100.00;153476.59;4993598;28;20904;-78
2022/12/25 06:32:32;;;;;;;4.77;3.80;;;;;;;8.27;100.00;153484.41;4980167;28;20453;-78
2022/12/25 06:35:18;;;;;;;4.00;3.60;;;;;;;8.26;100.00;153481.75;5000662;28;20451;-78
2022/12/25 06:38:03;;;;;;;3.83;3.40;;;;;;;8.28;100.00;153487.00;4993924;28;20423;-78
2022/12/25 06:40:48;;;;;;;4.23;3.40;;;;;;;8.26;100.00;153481.75;4994291;28;20847;-78
2022/12/25 06:43:34;;;;;;;4.90;3.50;;;;;;;8.27;100.00;153484.41;5003312;28;20446;-78
2022/12/25 06:46:20;;;;;;;4.57;4.00;;;;;;;8.28;100.00;153485.69;5000624;28;20473;-78
2022/12/25 06:49:06;;;;;;;4.80;3.50;;;;;;;8.30;100.00;153490.84;4994423;28;20425;-78
2022/12/25 06:51:52;;;;;;;3.60;3.30;;;;;;;8.26;100.00;153481.75;4987412;28;20446;-78
2022/12/25 06:54:37;;;;;;;4.20;3.40;;;;;;;8.29;100.00;153488.25;4992486;28;20509;-78
2022/12/25 06:57:23;;;;;;;3.90;3.50;;;;;;;8.31;100.00;153494.72;4991911;28;20442;-78
2022/12/25 07:00:09;;;;;;;3.33;3.00;;;;;;;8.31;100.00;153494.72;4996618;28;20571;-78
2022/12/25 07:02:54;;;;;;;3.40;3.10;;;;;;;8.32;100.00;153496.00;4982187;28;20481;-78
2022/12/25 07:05:43;;;;;;;5.20;3.87;;;;;;;8.30;100.00;153492.16;4993671;28;20508;-78
2022/12/25 07:08:28;;;;;;;4.80;4.10;;;;;;;8.30;100.00;153492.16;4994020;28;20411;-78
2022/12/25 07:11:14;;;;;;;3.83;3.43;;;;;;;8.31;100.00;153494.72;5009540;28;20977;-79
2022/12/25 07:14:00;;;;;;;5.10;4.20;;;;;;;8.30;100.00;153490.84;4991379;28;20959;-78
2022/12/25 07:16:45;;;;;;;4.20;3.80;;;;;;;8.29;100.00;153489.56;4993830;28;20417;-78
2022/12/25 07:19:30;;;;;;;5.03;4.37;;;;;;;8.30;100.00;153492.16;4993265;28;20458;-78
2022/12/25 07:22:17;;;;;;;4.20;3.80;;;;;;;8.32;100.00;153497.31;4984857;28;20533;-78
2022/12/25 07:25:03;;;;;;;4.93;4.40;;;;;;;8.33;100.00;153498.63;4994289;28;20457;-78
2022/12/25 07:27:48;;;;;;;4.00;3.70;;;;;;;8.34;100.00;153502.47;5000554;28;20552;-78
2022/12/25 07:30:33;;;;;;;4.80;3.90;;;;;;;8.34;100.00;153501.22;4991441;28;20960;-78
2022/12/25 07:33:19;;;;;;;4.60;4.07;;;;;;;8.35;100.00;153505.06;5012975;28;20463;-78
2022/12/25 07:36:06;;;;;;;3.60;3.10;;;;;;;8.36;100.00;153506.38;4995220;28;20513;-78
2022/12/25 07:38:53;;;;;;;3.93;3.13;;;;;;;8.38;100.00;153512.84;4999425;28;21108;-78
2022/12/25 07:41:38;;;;;;;3.63;3.33;;;;;;;8.40;100.00;153516.69;4996297;28;20940;-78
2022/12/25 07:44:33;;;;;;;3.07;2.63;;;;;;;8.40;100.00;153518.00;4993027;28;20461;-78
2022/12/25 07:47:18;;;;;;;3.63;3.17;;;;;;;8.45;100.00;153529.63;5012396;28;20461;-78
2022/12/25 07:50:04;;;;;;;3.33;3.03;;;;;;;8.48;100.00;153538.69;4985822;28;20458;-78
2022/12/25 07:52:49;;;;;;;2.27;2.07;;;;;;;8.47;100.00;153536.06;4992802;28;20425;-78
2022/12/25 07:55:36;;;;;;;2.97;2.67;;;;;;;8.58;100.00;153564.53;4993322;28;20824;-78
2022/12/25 07:58:21;;;;;;;2.90;2.23;;;;;;;8.62;100.00;153573.59;4987106;28;20900;-78
2022/12/25 08:01:08;;;;;;;5.00;3.93;;;;;;;8.70;100.00;153592.97;4993003;28;20469;-78
2022/12/25 08:03:55;;;;;;;2.83;2.53;;;;;;;8.66;100.00;153583.91;4995811;28;20445;-78
2022/12/25 08:06:40;;;;;;;3.80;3.03;;;;;;;8.66;100.00;153582.66;4987513;28;20476;-78
2022/12/25 08:09:26;;;;;;;2.27;1.93;;;;;;;8.65;100.00;153580.03;4988212;28;20553;-78
2022/12/25 08:12:12;;;;;;;2.97;2.47;;;;;;;8.65;100.00;153581.34;4982594;28;20430;-78
2022/12/25 08:14:58;;;;;;;2.10;1.90;;;;;;;8.64;100.00;153577.44;4990490;28;21049;-78
2022/12/25 08:17:43;;;;;;;2.70;2.13;;;;;;;8.63;100.00;153574.88;4994690;28;20445;-79
2022/12/25 08:20:28;;;;;;;3.20;2.90;;;;;;;8.57;100.00;153561.97;4988787;28;20809;-78
2022/12/25 08:23:14;;;;;;;4.60;4.20;;;;;;;8.53;100.00;153551.59;4989581;28;20461;-78
2022/12/25 08:26:00;;;;;;;6.67;5.63;;;;;;;8.50;100.00;153543.84;4996238;28;20624;-78
2022/12/25 08:28:46;;;;;;;7.80;6.90;;;;;;;8.45;100.00;153530.91;4987374;28;20438;-78
2022/12/25 08:31:33;;;;;;;8.30;6.20;;;;;;;8.49;100.00;153539.97;4994451;28;20445;-78
2022/12/25 08:34:18;;;;;;;7.23;6.47;;;;;;;8.61;100.00;153569.69;4985757;28;20493;-78
2022/12/25 08:37:04;;;;;;;9.37;7.10;;;;;;;8.71;100.00;153595.56;4994531;28;20682;-79
2022/12/25 08:39:49;;;;;;;5.87;5.27;;;;;;;8.80;100.00;153618.81;4974064;28;20537;-78
2022/12/25 08:42:35;;;;;;;8.27;6.30;;;;;;;8.88;100.00;153639.50;5004063;28;20776;-78
2022/12/25 08:45:21;;;;;;;5.00;4.50;;;;;;;8.91;100.00;153647.28;5000850;28;20445;-77
2022/12/25 08:48:07;;;;;;;5.17;4.67;;;;;;;8.95;100.00;153657.59;4988058;28;20557;-78
2022/12/25 08:50:57;;;;;;;4.60;4.17;;;;;;;8.98;100.00;153666.66;5000995;28;20994;-77
2022/12/25 08:53:48;;;;;;;4.20;3.80;;;;;;;9.01;100.00;153673.13;4998459;28;20433;-78
2022/12/25 08:56:37;;;;;;;3.83;3.47;;;;;;;9.02;100.00;153677.03;4991621;28;20441;-78
2022/12/25 08:59:22;;;;;;;3.83;3.30;;;;;;;9.05;100.00;153683.50;5001401;28;20597;-78
2022/12/25 09:02:10;;;;;;;3.90;3.40;;;;;;;9.08;100.00;153692.50;4992292;28;20968;-78
2022/12/25 09:04:56;;;;;;;4.27;3.37;;;;;;;9.12;100.00;153701.59;4993184;28;20505;-78
2022/12/25 09:07:41;;;;;;;3.30;2.97;;;;;;;9.13;100.00;153705.44;4994326;28;20474;-78
2022/12/25 09:10:27;;;;;;;4.40;2.97;;;;;;;9.16;100.00;153713.22;4990472;28;20450;-77
2022/12/25 09:13:12;;;;;;;3.00;2.47;;;;;;;9.18;100.00;153717.13;4995456;28;20613;-78
2022/12/25 09:15:57;;;;;;;3.43;3.00;;;;;;;9.22;100.00;153727.44;4989934;28;20820;-78
2022/12/25 09:18:44;;;;;;;3.70;2.47;;;;;;;9.25;100.00;153733.91;4995036;28;20449;-78
2022/12/25 09:21:30;;;;;;;2.83;2.17;;;;;;;9.26;100.00;153737.81;4991720;28;20446;-79
2022/12/25 09:24:15;;;;;;;3.17;2.40;;;;;;;9.29;100.00;153744.28;4981659;28;20516;-79
2022/12/25 09:27:01;;;;;;;3.53;2.50;;;;;;;9.31;100.00;153750.75;4994493;28;20462;-79
2022/12/25 09:29:46;;;;;;;3.43;2.97;;;;;;;9.35;100.00;153759.75;4993476;28;20485;-79
2022/12/25 09:32:32;;;;;;;3.83;3.37;;;;;;;9.39;100.00;153771.44;5001088;28;20461;-79
2022/12/25 09:35:18;;;;;;;4.43;2.90;;;;;;;9.42;100.00;153779.22;4990691;28;20449;-79
2022/12/25 09:38:03;;;;;;;3.70;3.07;;;;;;;9.45;100.00;153786.94;4991872;28;20437;-78
2022/12/25 09:40:58;;;;;;;3.73;2.87;;;;;;;9.45;100.00;153786.94;4991095;28;20443;-78
2022/12/25 09:43:47;;;;;;;3.33;3.03;;;;;;;9.47;100.00;153792.13;4993359;28;20461;-78
2022/12/25 09:46:40;;;;;;;3.07;2.70;;;;;;;9.53;100.00;153806.38;4987414;28;20455;-78
2022/12/25 09:49:33;;;;;;;6.00;3.30;;;;;;;9.55;100.00;153812.84;4995020;28;20866;-79
2022/12/25 09:52:24;;;;;;;3.80;3.23;;;;;;;9.58;100.00;153819.31;4994807;28;20785;-79
2022/12/25 09:55:12;;;;;;;4.30;3.33;;;;;;;9.63;100.00;153832.25;5010496;28;20439;-79
2022/12/25 09:57:59;;;;;;;5.13;3.20;;;;;;;9.67;100.00;153843.88;4997350;28;20459;-79
2022/12/25 10:00:48;;;;;;;5.20;3.53;;;;;;;9.74;100.00;153861.97;4994152;28;20458;-79
2022/12/25 10:03:43;;;;;;;3.60;3.10;;;;;;;9.78;100.00;153872.34;4992318;28;20496;-79
2022/12/25 10:06:38;;;;;;;3.90;3.50;;;;;;;9.79;100.00;153874.91;4992793;28;20529;-79
2022/12/25 10:09:34;;;;;;;3.93;3.20;;;;;;;9.89;100.00;153898.22;5001724;28;20456;-79
2022/12/25 10:12:29;;;;;;;3.40;2.90;;;;;;;9.92;100.00;153906.00;4996112;28;20453;-79
2022/12/25 10:15:25;;;;;;;3.00;2.70;;;;;;;9.95;100.00;153913.75;4993302;28;20565;-79
2022/12/25 10:18:43;;;;;;;3.20;2.90;;;;;;;10.01;100.00;153930.56;4987873;28;20516;-79
2022/12/25 10:21:29;;;;;;;2.97;2.67;;;;;;;10.08;100.00;153948.72;4991230;28;20450;-79
2022/12/25 10:24:22;;;;;;;3.23;2.90;;;;;;;10.20;100.00;153979.81;4986374;28;20460;-79
2022/12/25 10:27:14;;;;;;;3.37;2.27;;;;;;;10.25;100.00;153992.75;5004768;28;20461;-79
2022/12/25 10:30:01;;;;;;;2.43;2.07;;;;;;;10.36;100.00;154021.22;4987603;28;20462;-79
2022/12/25 10:32:47;;;;;;;3.00;2.00;;;;;;;10.43;100.00;154038.09;4990306;28;20952;-79
2022/12/25 10:35:32;;;;;;;2.97;1.90;;;;;;;10.47;100.00;154047.13;4996895;28;21095;-79
2022/12/25 10:38:19;;;;;;;2.73;1.80;;;;;;;10.56;100.00;154071.75;4988038;28;20877;-79
2022/12/25 10:41:17;;;;;;;2.43;1.97;;;;;;;10.65;100.00;154095.03;4993120;28;20457;-79
2022/12/25 10:44:13;;;;;;;2.50;1.87;;;;;;;10.67;100.00;154100.19;5005117;28;20456;-79
2022/12/25 10:47:00;;;;;;;2.30;2.03;;;;;;;10.75;100.00;154119.66;4983411;28;20489;-79
2022/12/25 10:49:45;;;;;;;3.23;2.03;;;;;;;10.81;100.00;154136.47;4991272;28;20461;-79
2022/12/25 10:52:30;;;;;;;2.40;1.93;;;;;;;10.87;100.00;154150.72;4994620;28;20466;-79
2022/12/25 10:55:19;;;;;;;2.40;1.97;;;;;;;10.93;100.00;154167.53;4991624;28;20461;-79
2022/12/25 10:58:05;;;;;;;2.30;1.97;;;;;;;10.94;100.00;154168.81;4990826;28;20450;-79
2022/12/25 11:00:54;;;;;;;2.80;2.30;;;;;;;10.92;100.00;154163.66;4988918;28;20452;-79
2022/12/25 11:03:44;;;;;;;2.40;1.87;;;;;;;10.91;100.00;154161.06;4990432;28;20447;-79
2022/12/25 11:06:31;;;;;;;3.00;2.50;;;;;;;10.94;100.00;154168.81;4989997;28;20443;-79
2022/12/25 11:09:16;;;;;;;3.07;2.33;;;;;;;10.91;100.00;154161.06;4987955;28;20442;-79
2022/12/25 11:12:02;;;;;;;2.83;2.30;;;;;;;10.90;100.00;154159.78;4991167;28;20787;-79
2022/12/25 11:14:55;;;;;;;3.37;2.67;;;;;;;10.88;100.00;154153.31;4994733;28;20451;-79
2022/12/25 11:17:48;;;;;;;4.00;2.80;;;;;;;10.82;100.00;154139.06;4992384;28;20575;-79
2022/12/25 11:20:33;;;;;;;3.20;2.53;;;;;;;10.84;100.00;154142.94;4994167;28;20904;-79
2022/12/25 11:23:20;;;;;;;3.10;2.30;;;;;;;10.87;100.00;154150.72;4988883;28;20446;-79
2022/12/25 11:26:07;;;;;;;2.53;2.10;;;;;;;10.94;100.00;154168.81;4989418;28;21008;-79
2022/12/25 11:28:54;;;;;;;3.27;2.30;;;;;;;10.98;100.00;154180.53;4993791;28;20477;-79
2022/12/25 11:31:40;;;;;;;3.03;2.27;;;;;;;11.04;100.00;154194.72;4992839;28;20446;-79
2022/12/25 11:34:31;;;;;;;2.50;2.30;;;;;;;11.00;100.00;154184.38;4989217;28;20620;-79
2022/12/25 11:37:22;;;;;;;3.63;2.50;;;;;;;11.12;100.00;154214.19;4993098;28;20433;-79
2022/12/25 11:40:14;;;;;;;3.20;2.87;;;;;;;11.13;100.00;154216.75;4991320;28;20518;-79
2022/12/25 11:43:03;;;;;;;2.60;2.20;;;;;;;11.10;100.00;154210.28;4989891;28;20459;-79
2022/12/25 11:45:52;;;;;;;3.10;2.37;;;;;;;11.17;100.00;154227.16;4993535;28;20517;-79
2022/12/25 11:48:42;;;;;;;2.90;2.37;;;;;;;11.25;100.00;154247.88;4992141;28;20996;-79
2022/12/25 11:51:34;;;;;;;2.63;2.10;;;;;;;11.33;100.00;154269.84;4991011;28;20803;-79
2022/12/25 11:54:25;;;;;;;2.87;1.87;;;;;;;11.42;100.00;154293.19;4984739;28;21077;-79
2022/12/25 11:57:11;;;;;;;4.43;2.40;;;;;;;11.52;100.00;154319.09;4976013;28;20457;-79
2022/12/25 11:59:59;;;;;;;2.40;2.20;;;;;;;11.55;100.00;154326.88;4992015;28;20518;-79
2022/12/25 12:02:51;;;;;;;3.20;2.00;;;;;;;11.59;100.00;154337.28;4989829;28;20458;-79
2022/12/25 12:05:44;;;;;;;2.77;2.33;;;;;;;11.74;100.00;154373.59;4988291;28;20427;-79
2022/12/25 12:08:31;;;;;;;3.07;2.10;;;;;;;11.84;100.00;154399.50;4988820;28;20461;-79
2022/12/25 12:11:19;;;;;;;2.90;2.20;;;;;;;11.89;100.00;154412.44;4990414;28;20617;-79
2022/12/25 12:14:19;;;;;;;2.90;2.17;;;;;;;11.98;100.00;154437.09;4983162;28;20454;-79
2022/12/25 12:17:04;;;;;;;3.13;2.50;;;;;;;12.11;100.00;154469.50;4994560;28;20431;-79
2022/12/25 12:19:50;;;;;;;3.77;3.10;;;;;;;12.10;100.00;154468.19;4987299;28;20435;-79
2022/12/25 12:22:36;;;;;;;2.97;2.53;;;;;;;12.10;100.00;154466.88;4993362;28;20465;-79
2022/12/25 12:25:23;;;;;;;3.90;2.90;;;;;;;12.14;100.00;154478.59;4984039;28;21027;-80
2022/12/25 12:28:13;;;;;;;4.23;3.20;;;;;;;12.17;100.00;154486.38;4987578;28;20470;-79
2022/12/25 12:31:01;;;;;;;4.43;3.40;;;;;;;12.15;100.00;154481.16;4984376;28;20522;-79
2022/12/25 12:33:51;;;;;;;5.13;4.10;;;;;;;12.29;100.00;154514.84;4987598;28;20481;-79
2022/12/25 12:36:36;;;;;;;4.20;3.80;;;;;;;12.23;100.00;154499.34;4986741;28;20502;-79
2022/12/25 12:39:25;;;;;;;3.80;3.10;;;;;;;12.19;100.00;154491.56;4986761;28;20439;-79
2022/12/25 12:42:14;;;;;;;3.47;3.17;;;;;;;12.14;100.00;154478.59;4989541;28;20498;-80
2022/12/25 12:45:08;;;;;;;6.10;3.13;;;;;;;12.04;100.00;154451.38;4988777;28;20541;-79
2022/12/25 12:47:54;;;;;;;3.67;3.33;;;;;;;12.14;100.00;154477.28;4989068;28;20826;-79
2022/12/25 12:50:40;;;;;;;4.07;2.90;;;;;;;12.28;100.00;154512.31;5004934;28;20896;-79
2022/12/25 12:53:31;;;;;;;3.50;2.90;;;;;;;12.30;100.00;154517.47;4977894;28;20502;-79
2022/12/25 12:56:17;;;;;;;3.00;2.70;;;;;;;12.40;100.00;154543.41;4988297;28;20442;-79
2022/12/25 12:59:04;;;;;;;3.80;2.60;;;;;;;12.58;100.00;154591.38;4988491;28;20467;-79
2022/12/25 13:01:55;;;;;;;2.50;2.30;;;;;;;12.53;100.00;154578.41;4989360;28;20466;-79
2022/12/25 13:04:57;;;;;;;2.60;2.40;;;;;;;12.55;100.00;154582.34;4991338;28;20940;-79
2022/12/25 13:07:51;;;;;;;2.20;1.70;;;;;;;12.57;100.00;154588.81;5003074;28;20561;-79
2022/12/25 13:10:38;;;;;;;2.67;2.33;;;;;;;12.64;100.00;154605.66;4996850;28;20439;-79
2022/12/25 13:13:26;;;;;;;2.00;1.63;;;;;;;12.81;100.00;154651.03;4991549;28;20524;-79
2022/12/25 13:16:22;;;;;;;2.10;1.70;;;;;;;12.88;100.00;154666.59;4990011;28;20567;-79
2022/12/25 13:19:11;;;;;;;2.80;1.80;;;;;;;12.76;100.00;154636.81;4998626;28;20475;-79
2022/12/25 13:21:57;;;;;;;2.70;1.90;;;;;;;12.83;100.00;154654.94;4981760;28;20459;-79
2022/12/25 13:24:43;;;;;;;2.63;2.10;;;;;;;12.77;100.00;154639.38;4992656;28;20442;-80
2022/12/25 13:27:30;;;;;;;2.07;1.80;;;;;;;12.94;100.00;154682.19;4986727;28;21000;-79
2022/12/25 13:30:19;;;;;;;2.27;1.90;;;;;;;12.78;100.00;154643.28;4990775;28;20505;-79
2022/12/25 13:33:06;;;;;;;3.10;1.87;;;;;;;12.79;100.00;154644.53;4997911;28;21075;-79
2022/12/25 13:35:52;;;;;;;2.53;2.00;;;;;;;12.90;100.00;154673.09;4998975;28;20457;-90
2022/12/25 13:38:37;;;;;;;2.43;1.73;;;;;;;12.86;100.00;154662.72;4988597;28;20463;-79
2022/12/25 13:44:29;;;;;;;3.20;2.63;;;;;;;12.80;100.00;154647.16;4993735;28;20454;-79
2022/12/25 13:47:21;;;;;;;2.90;2.23;;;;;;;12.79;100.00;154644.53;5006242;28;20594;-79
2022/12/25 13:50:19;;;;;;;2.40;2.10;;;;;;;12.69;100.00;154618.63;4985724;28;20465;-79
2022/12/25 13:53:11;;;;;;;4.30;2.70;;;;;;;12.67;100.00;154614.75;4994130;28;20434;-79
2022/12/25 13:55:58;;;;;;;5.37;3.27;;;;;;;12.67;100.00;154614.75;5002246;28;20517;-79
2022/12/25 13:58:45;;;;;;;5.17;4.20;;;;;;;12.59;100.00;154594.00;4994633;28;20499;-79
2022/12/25 14:01:30;;;;;;;3.97;3.27;;;;;;;12.57;100.00;154588.81;4992657;28;20439;-79
2022/12/25 14:04:18;;;;;;;5.80;4.87;;;;;;;12.55;100.00;154582.34;4992032;28;20463;-79
2022/12/25 14:07:10;;;;;;;6.90;5.20;;;;;;;12.52;100.00;154574.53;4990238;28;20908;-79
2022/12/25 14:10:00;;;;;;;4.40;3.70;;;;;;;12.45;100.00;154556.34;4986515;28;20569;-79
2022/12/25 14:12:48;;;;;;;4.00;3.23;;;;;;;12.41;100.00;154547.31;4998155;28;20522;-79
2022/12/25 14:15:35;;;;;;;6.20;4.20;;;;;;;12.42;100.00;154548.56;4996059;28;20451;-79
2022/12/25 14:18:22;;;;;;;4.20;3.50;;;;;;;12.46;100.00;154558.97;5002160;28;20451;-79
2022/12/25 14:21:11;;;;;;;4.70;2.90;;;;;;;12.46;100.00;154558.97;4991585;28;20529;-79
2022/12/25 14:23:59;;;;;;;3.47;2.50;;;;;;;12.44;100.00;154553.78;4992261;28;20456;-79
2022/12/25 14:26:44;;;;;;;3.10;2.40;;;;;;;12.47;100.00;154561.59;4984674;28;20447;-79
2022/12/25 14:29:34;;;;;;;2.93;2.20;;;;;;;12.46;100.00;154560.28;4991116;28;20506;-79
2022/12/25 14:32:21;;;;;;;3.93;2.73;;;;;;;12.42;100.00;154549.88;4989361;28;20470;-79
2022/12/25 14:35:09;;;;;;;3.40;2.53;;;;;;;12.42;100.00;154549.88;4992727;28;20891;-79
2022/12/25 14:37:58;;;;;;;3.43;2.00;;;;;;;12.41;100.00;154546.00;4986196;28;20536;-79
2022/12/25 14:40:45;;;;;;;2.30;1.90;;;;;;;12.41;100.00;154546.00;4988788;28;20442;-79
2022/12/25 14:43:31;;;;;;;2.77;2.40;;;;;;;12.34;100.00;154527.88;5002913;28;20447;-80
2022/12/25 14:46:22;;;;;;;3.40;2.13;;;;;;;12.30;100.00;154517.47;4991747;28;21013;-79